sensor_id;sensor_type;location;lat;lon;timestamp;P1;durP1;ratioP1;P2;durP2;ratioP2
13347;SDS011;6743;49.934;9.138;2023-08-06T00:00:21;1.30;;;1.20;;
13347;SDS011;6743;49.934;9.138;2023-08-06T00:02:47;1.62;;;1.52;;
13347;SDS011;6743;49.934;9.138;2023-08-06T00:05:14;1.33;;;1.23;;
13347;SDS011;6743;49.934;9.138;2023-08-06T00:07:43;2.05;;;1.35;;
13347;SDS011;6743;49.934;9.138;2023-08-06T00:10:09;1.00;;;1.00;;
13347;SDS011;6743;49.934;9.138;2023-08-06T00:12:35;1.10;;;1.10;;
13347;SDS011;6743;49.934;9.138;2023-08-06T00:15:02;1.50;;;1.40;;
13347;SDS011;6743;49.934;9.138;2023-08-06T00:17:28;1.02;;;1.02;;
13347;SDS011;6743;49.934;9.138;2023-08-06T00:19:54;1.20;;;1.17;;
13347;SDS011;6743;49.934;9.138;2023-08-06T00:22:20;1.15;;;1.12;;
13347;SDS011;6743;49.934;9.138;2023-08-06T00:24:46;1.25;;;1.15;;
13347;SDS011;6743;49.934;9.138;2023-08-06T00:27:12;1.17;;;1.17;;
13347;SDS011;6743;49.934;9.138;2023-08-06T00:29:39;1.37;;;1.27;;
13347;SDS011;6743;49.934;9.138;2023-08-06T00:32:05;1.30;;;1.20;;
13347;SDS011;6743;49.934;9.138;2023-08-06T00:34:31;1.40;;;1.30;;
13347;SDS011;6743;49.934;9.138;2023-08-06T00:36:57;1.37;;;1.27;;
13347;SDS011;6743;49.934;9.138;2023-08-06T00:39:23;1.27;;;1.27;;
13347;SDS011;6743;49.934;9.138;2023-08-06T00:41:49;1.10;;;1.10;;
13347;SDS011;6743;49.934;9.138;2023-08-06T00:44:15;0.90;;;0.90;;
13347;SDS011;6743;49.934;9.138;2023-08-06T00:46:41;1.20;;;1.10;;
13347;SDS011;6743;49.934;9.138;2023-08-06T00:49:08;1.48;;;1.42;;
13347;SDS011;6743;49.934;9.138;2023-08-06T00:51:34;1.20;;;1.20;;
13347;SDS011;6743;49.934;9.138;2023-08-06T00:54:00;1.05;;;1.05;;
13347;SDS011;6743;49.934;9.138;2023-08-06T00:56:27;0.90;;;0.90;;
13347;SDS011;6743;49.934;9.138;2023-08-06T00:58:54;0.90;;;0.90;;
13347;SDS011;6743;49.934;9.138;2023-08-06T01:01:20;0.90;;;0.90;;
13347;SDS011;6743;49.934;9.138;2023-08-06T01:03:47;1.30;;;1.20;;
13347;SDS011;6743;49.934;9.138;2023-08-06T01:06:13;1.00;;;1.00;;
13347;SDS011;6743;49.934;9.138;2023-08-06T01:08:46;1.10;;;1.10;;
13347;SDS011;6743;49.934;9.138;2023-08-06T01:11:21;1.70;;;1.58;;
13347;SDS011;6743;49.934;9.138;2023-08-06T01:13:58;1.48;;;1.35;;
13347;SDS011;6743;49.934;9.138;2023-08-06T01:16:27;1.40;;;1.35;;
13347;SDS011;6743;49.934;9.138;2023-08-06T01:18:56;1.48;;;1.37;;
13347;SDS011;6743;49.934;9.138;2023-08-06T01:21:24;1.08;;;1.08;;
13347;SDS011;6743;49.934;9.138;2023-08-06T01:23:50;1.50;;;1.40;;
13347;SDS011;6743;49.934;9.138;2023-08-06T01:26:19;0.88;;;0.88;;
13347;SDS011;6743;49.934;9.138;2023-08-06T01:28:52;1.42;;;1.33;;
13347;SDS011;6743;49.934;9.138;2023-08-06T01:31:26;1.10;;;1.10;;
13347;SDS011;6743;49.934;9.138;2023-08-06T01:33:55;1.17;;;1.00;;
13347;SDS011;6743;49.934;9.138;2023-08-06T01:36:24;1.40;;;1.27;;
13347;SDS011;6743;49.934;9.138;2023-08-06T01:38:51;1.50;;;1.40;;
13347;SDS011;6743;49.934;9.138;2023-08-06T01:41:18;1.08;;;1.02;;
13347;SDS011;6743;49.934;9.138;2023-08-06T01:43:44;1.33;;;1.10;;
13347;SDS011;6743;49.934;9.138;2023-08-06T01:46:10;1.17;;;1.08;;
13347;SDS011;6743;49.934;9.138;2023-08-06T01:48:36;1.73;;;1.10;;
13347;SDS011;6743;49.934;9.138;2023-08-06T01:51:03;1.12;;;1.10;;
13347;SDS011;6743;49.934;9.138;2023-08-06T01:53:30;1.15;;;1.10;;
13347;SDS011;6743;49.934;9.138;2023-08-06T01:55:56;1.20;;;1.10;;
13347;SDS011;6743;49.934;9.138;2023-08-06T01:58:22;1.40;;;1.30;;
13347;SDS011;6743;49.934;9.138;2023-08-06T02:00:48;1.25;;;1.15;;
13347;SDS011;6743;49.934;9.138;2023-08-06T02:03:15;1.62;;;1.52;;
13347;SDS011;6743;49.934;9.138;2023-08-06T02:05:41;1.45;;;1.17;;
13347;SDS011;6743;49.934;9.138;2023-08-06T02:08:07;1.17;;;1.17;;
13347;SDS011;6743;49.934;9.138;2023-08-06T02:10:33;0.93;;;0.93;;
13347;SDS011;6743;49.934;9.138;2023-08-06T02:12:59;1.20;;;1.10;;
13347;SDS011;6743;49.934;9.138;2023-08-06T02:15:25;1.30;;;1.20;;
13347;SDS011;6743;49.934;9.138;2023-08-06T02:17:51;1.10;;;1.02;;
13347;SDS011;6743;49.934;9.138;2023-08-06T02:20:17;1.10;;;1.10;;
13347;SDS011;6743;49.934;9.138;2023-08-06T02:22:43;1.05;;;1.05;;
13347;SDS011;6743;49.934;9.138;2023-08-06T02:25:09;1.50;;;1.40;;
13347;SDS011;6743;49.934;9.138;2023-08-06T02:27:36;1.60;;;0.93;;
13347;SDS011;6743;49.934;9.138;2023-08-06T02:30:03;1.40;;;1.30;;
13347;SDS011;6743;49.934;9.138;2023-08-06T02:32:30;0.80;;;0.80;;
13347;SDS011;6743;49.934;9.138;2023-08-06T02:34:57;1.40;;;1.27;;
13347;SDS011;6743;49.934;9.138;2023-08-06T02:37:23;1.20;;;1.10;;
13347;SDS011;6743;49.934;9.138;2023-08-06T02:39:49;1.00;;;1.00;;
13347;SDS011;6743;49.934;9.138;2023-08-06T02:42:15;1.08;;;1.08;;
13347;SDS011;6743;49.934;9.138;2023-08-06T02:44:42;1.35;;;1.25;;
13347;SDS011;6743;49.934;9.138;2023-08-06T02:47:08;1.15;;;1.15;;
13347;SDS011;6743;49.934;9.138;2023-08-06T02:49:34;1.90;;;1.20;;
13347;SDS011;6743;49.934;9.138;2023-08-06T02:52:00;1.25;;;1.23;;
13347;SDS011;6743;49.934;9.138;2023-08-06T02:54:26;1.30;;;1.20;;
13347;SDS011;6743;49.934;9.138;2023-08-06T02:56:52;1.20;;;1.20;;
13347;SDS011;6743;49.934;9.138;2023-08-06T02:59:17;1.15;;;1.08;;
13347;SDS011;6743;49.934;9.138;2023-08-06T03:01:44;1.30;;;1.20;;
13347;SDS011;6743;49.934;9.138;2023-08-06T03:04:10;0.95;;;0.93;;
13347;SDS011;6743;49.934;9.138;2023-08-06T03:06:36;1.35;;;1.25;;
13347;SDS011;6743;49.934;9.138;2023-08-06T03:09:02;1.35;;;1.25;;
13347;SDS011;6743;49.934;9.138;2023-08-06T03:11:28;1.48;;;1.37;;
13347;SDS011;6743;49.934;9.138;2023-08-06T03:13:54;1.80;;;1.62;;
13347;SDS011;6743;49.934;9.138;2023-08-06T03:16:20;1.50;;;1.40;;
13347;SDS011;6743;49.934;9.138;2023-08-06T03:18:46;1.48;;;1.37;;
13347;SDS011;6743;49.934;9.138;2023-08-06T03:21:12;1.35;;;1.30;;
13347;SDS011;6743;49.934;9.138;2023-08-06T03:23:39;1.30;;;1.20;;
13347;SDS011;6743;49.934;9.138;2023-08-06T03:26:05;1.10;;;1.10;;
13347;SDS011;6743;49.934;9.138;2023-08-06T03:28:31;1.60;;;1.50;;
13347;SDS011;6743;49.934;9.138;2023-08-06T03:31:00;1.10;;;1.10;;
13347;SDS011;6743;49.934;9.138;2023-08-06T03:33:26;1.15;;;1.05;;
13347;SDS011;6743;49.934;9.138;2023-08-06T03:35:53;1.23;;;1.17;;
13347;SDS011;6743;49.934;9.138;2023-08-06T03:38:19;1.20;;;1.17;;
13347;SDS011;6743;49.934;9.138;2023-08-06T03:40:45;1.12;;;1.10;;
13347;SDS011;6743;49.934;9.138;2023-08-06T03:43:12;1.30;;;1.20;;
13347;SDS011;6743;49.934;9.138;2023-08-06T03:45:38;4.15;;;0.98;;
13347;SDS011;6743;49.934;9.138;2023-08-06T03:48:04;1.08;;;1.00;;
13347;SDS011;6743;49.934;9.138;2023-08-06T03:50:30;1.17;;;1.10;;
13347;SDS011;6743;49.934;9.138;2023-08-06T03:52:56;1.17;;;1.10;;
13347;SDS011;6743;49.934;9.138;2023-08-06T03:55:22;1.90;;;1.30;;
13347;SDS011;6743;49.934;9.138;2023-08-06T03:57:48;1.15;;;1.08;;
13347;SDS011;6743;49.934;9.138;2023-08-06T04:00:14;1.20;;;1.10;;
13347;SDS011;6743;49.934;9.138;2023-08-06T04:02:41;1.35;;;1.25;;
13347;SDS011;6743;49.934;9.138;2023-08-06T04:05:07;1.20;;;1.10;;
13347;SDS011;6743;49.934;9.138;2023-08-06T04:07:33;0.90;;;0.90;;
13347;SDS011;6743;49.934;9.138;2023-08-06T04:10:01;0.98;;;0.98;;
13347;SDS011;6743;49.934;9.138;2023-08-06T04:12:29;1.15;;;1.05;;
13347;SDS011;6743;49.934;9.138;2023-08-06T04:14:57;1.10;;;1.10;;
13347;SDS011;6743;49.934;9.138;2023-08-06T04:17:24;1.33;;;1.23;;
13347;SDS011;6743;49.934;9.138;2023-08-06T04:19:50;1.10;;;1.10;;
13347;SDS011;6743;49.934;9.138;2023-08-06T04:22:17;1.37;;;1.27;;
13347;SDS011;6743;49.934;9.138;2023-08-06T04:24:44;1.10;;;1.00;;
13347;SDS011;6743;49.934;9.138;2023-08-06T04:27:11;1.25;;;1.17;;
13347;SDS011;6743;49.934;9.138;2023-08-06T04:29:38;1.17;;;1.10;;
13347;SDS011;6743;49.934;9.138;2023-08-06T04:32:05;1.15;;;1.15;;
13347;SDS011;6743;49.934;9.138;2023-08-06T04:34:32;0.90;;;0.90;;
13347;SDS011;6743;49.934;9.138;2023-08-06T04:36:58;1.60;;;1.25;;
13347;SDS011;6743;49.934;9.138;2023-08-06T04:39:25;1.15;;;1.10;;
13347;SDS011;6743;49.934;9.138;2023-08-06T04:41:51;1.05;;;1.02;;
13347;SDS011;6743;49.934;9.138;2023-08-06T04:44:18;1.08;;;1.02;;
13347;SDS011;6743;49.934;9.138;2023-08-06T04:46:44;1.10;;;1.10;;
13347;SDS011;6743;49.934;9.138;2023-08-06T04:49:10;1.30;;;1.30;;
13347;SDS011;6743;49.934;9.138;2023-08-06T04:51:36;1.60;;;1.50;;
13347;SDS011;6743;49.934;9.138;2023-08-06T04:54:02;1.23;;;0.98;;
13347;SDS011;6743;49.934;9.138;2023-08-06T04:56:28;1.27;;;1.20;;
13347;SDS011;6743;49.934;9.138;2023-08-06T04:58:54;1.50;;;1.08;;
13347;SDS011;6743;49.934;9.138;2023-08-06T05:01:21;1.00;;;0.77;;
13347;SDS011;6743;49.934;9.138;2023-08-06T05:03:47;1.73;;;1.62;;
13347;SDS011;6743;49.934;9.138;2023-08-06T05:06:13;1.20;;;1.15;;
13347;SDS011;6743;49.934;9.138;2023-08-06T05:08:39;1.35;;;1.35;;
13347;SDS011;6743;49.934;9.138;2023-08-06T05:11:05;1.20;;;1.20;;
13347;SDS011;6743;49.934;9.138;2023-08-06T05:13:31;1.65;;;1.55;;
13347;SDS011;6743;49.934;9.138;2023-08-06T05:15:57;1.40;;;1.30;;
13347;SDS011;6743;49.934;9.138;2023-08-06T05:18:24;1.60;;;1.50;;
13347;SDS011;6743;49.934;9.138;2023-08-06T05:20:50;0.98;;;0.98;;
13347;SDS011;6743;49.934;9.138;2023-08-06T05:23:16;3.03;;;1.15;;
13347;SDS011;6743;49.934;9.138;2023-08-06T05:25:42;1.25;;;1.15;;
13347;SDS011;6743;49.934;9.138;2023-08-06T05:28:08;1.27;;;1.25;;
13347;SDS011;6743;49.934;9.138;2023-08-06T05:30:38;1.20;;;1.10;;
13347;SDS011;6743;49.934;9.138;2023-08-06T05:33:04;0.90;;;0.90;;
13347;SDS011;6743;49.934;9.138;2023-08-06T05:35:31;1.35;;;1.25;;
13347;SDS011;6743;49.934;9.138;2023-08-06T05:37:58;1.25;;;1.15;;
13347;SDS011;6743;49.934;9.138;2023-08-06T05:40:24;3.50;;;1.25;;
13347;SDS011;6743;49.934;9.138;2023-08-06T05:42:50;1.15;;;1.05;;
13347;SDS011;6743;49.934;9.138;2023-08-06T05:45:16;1.30;;;1.15;;
13347;SDS011;6743;49.934;9.138;2023-08-06T05:47:43;1.12;;;1.02;;
13347;SDS011;6743;49.934;9.138;2023-08-06T05:50:09;0.62;;;0.62;;
13347;SDS011;6743;49.934;9.138;2023-08-06T05:52:36;0.82;;;0.82;;
13347;SDS011;6743;49.934;9.138;2023-08-06T05:55:02;0.77;;;0.77;;
13347;SDS011;6743;49.934;9.138;2023-08-06T05:57:28;0.73;;;0.73;;
13347;SDS011;6743;49.934;9.138;2023-08-06T05:59:54;0.85;;;0.68;;
13347;SDS011;6743;49.934;9.138;2023-08-06T06:02:20;1.70;;;0.80;;
13347;SDS011;6743;49.934;9.138;2023-08-06T06:04:46;1.15;;;0.73;;
13347;SDS011;6743;49.934;9.138;2023-08-06T06:07:12;0.68;;;0.68;;
13347;SDS011;6743;49.934;9.138;2023-08-06T06:09:40;0.68;;;0.68;;
13347;SDS011;6743;49.934;9.138;2023-08-06T06:12:06;3.05;;;0.80;;
13347;SDS011;6743;49.934;9.138;2023-08-06T06:14:32;0.40;;;0.40;;
13347;SDS011;6743;49.934;9.138;2023-08-06T06:16:58;0.82;;;0.68;;
13347;SDS011;6743;49.934;9.138;2023-08-06T06:19:25;0.60;;;0.60;;
13347;SDS011;6743;49.934;9.138;2023-08-06T06:21:51;0.75;;;0.75;;
13347;SDS011;6743;49.934;9.138;2023-08-06T06:24:18;0.80;;;0.80;;
13347;SDS011;6743;49.934;9.138;2023-08-06T06:26:45;0.70;;;0.70;;
13347;SDS011;6743;49.934;9.138;2023-08-06T06:29:11;0.28;;;0.28;;
13347;SDS011;6743;49.934;9.138;2023-08-06T06:31:37;0.40;;;0.40;;
13347;SDS011;6743;49.934;9.138;2023-08-06T06:34:03;0.70;;;0.50;;
13347;SDS011;6743;49.934;9.138;2023-08-06T06:36:29;0.43;;;0.43;;
13347;SDS011;6743;49.934;9.138;2023-08-06T06:38:55;0.40;;;0.40;;
13347;SDS011;6743;49.934;9.138;2023-08-06T06:41:21;0.40;;;0.40;;
13347;SDS011;6743;49.934;9.138;2023-08-06T06:43:47;0.35;;;0.35;;
13347;SDS011;6743;49.934;9.138;2023-08-06T06:46:13;0.30;;;0.30;;
13347;SDS011;6743;49.934;9.138;2023-08-06T06:48:39;0.22;;;0.22;;
13347;SDS011;6743;49.934;9.138;2023-08-06T06:51:05;0.50;;;0.50;;
13347;SDS011;6743;49.934;9.138;2023-08-06T06:53:31;0.25;;;0.25;;
13347;SDS011;6743;49.934;9.138;2023-08-06T06:56:01;0.37;;;0.37;;
13347;SDS011;6743;49.934;9.138;2023-08-06T06:58:28;0.30;;;0.30;;
13347;SDS011;6743;49.934;9.138;2023-08-06T07:00:55;0.10;;;0.10;;
13347;SDS011;6743;49.934;9.138;2023-08-06T07:03:21;0.75;;;0.47;;
13347;SDS011;6743;49.934;9.138;2023-08-06T07:05:47;0.47;;;0.47;;
13347;SDS011;6743;49.934;9.138;2023-08-06T07:08:13;0.30;;;0.30;;
13347;SDS011;6743;49.934;9.138;2023-08-06T07:10:40;0.20;;;0.20;;
13347;SDS011;6743;49.934;9.138;2023-08-06T07:13:07;0.17;;;0.17;;
13347;SDS011;6743;49.934;9.138;2023-08-06T07:15:33;0.40;;;0.40;;
13347;SDS011;6743;49.934;9.138;2023-08-06T07:17:59;0.20;;;0.20;;
13347;SDS011;6743;49.934;9.138;2023-08-06T07:20:26;0.30;;;0.30;;
13347;SDS011;6743;49.934;9.138;2023-08-06T07:22:54;0.22;;;0.20;;
13347;SDS011;6743;49.934;9.138;2023-08-06T07:25:20;0.28;;;0.28;;
13347;SDS011;6743;49.934;9.138;2023-08-06T07:27:46;0.10;;;0.10;;
13347;SDS011;6743;49.934;9.138;2023-08-06T07:30:12;0.47;;;0.43;;
13347;SDS011;6743;49.934;9.138;2023-08-06T07:32:38;0.30;;;0.30;;
13347;SDS011;6743;49.934;9.138;2023-08-06T07:35:05;0.28;;;0.28;;
13347;SDS011;6743;49.934;9.138;2023-08-06T07:37:33;0.40;;;0.40;;
13347;SDS011;6743;49.934;9.138;2023-08-06T07:39:59;0.62;;;0.60;;
13347;SDS011;6743;49.934;9.138;2023-08-06T07:42:25;0.40;;;0.40;;
13347;SDS011;6743;49.934;9.138;2023-08-06T07:44:51;1.42;;;0.25;;
13347;SDS011;6743;49.934;9.138;2023-08-06T08:05:32;0.40;;;0.40;;
13347;SDS011;6743;49.934;9.138;2023-08-06T08:07:58;0.30;;;0.30;;
13347;SDS011;6743;49.934;9.138;2023-08-06T08:13:21;0.20;;;0.20;;
13347;SDS011;6743;49.934;9.138;2023-08-06T08:15:47;0.30;;;0.30;;
13347;SDS011;6743;49.934;9.138;2023-08-06T08:21:47;1.70;;;0.37;;
13347;SDS011;6743;49.934;9.138;2023-08-06T08:24:13;0.28;;;0.28;;
13347;SDS011;6743;49.934;9.138;2023-08-06T09:11:59;0.85;;;0.85;;
13347;SDS011;6743;49.934;9.138;2023-08-06T09:14:27;0.30;;;0.30;;
13347;SDS011;6743;49.934;9.138;2023-08-06T09:20:08;0.20;;;0.20;;
13347;SDS011;6743;49.934;9.138;2023-08-06T09:22:36;0.30;;;0.30;;
13347;SDS011;6743;49.934;9.138;2023-08-06T09:30:56;0.37;;;0.37;;
13347;SDS011;6743;49.934;9.138;2023-08-06T09:33:26;0.30;;;0.30;;
13347;SDS011;6743;49.934;9.138;2023-08-06T09:36:34;0.45;;;0.45;;
13347;SDS011;6743;49.934;9.138;2023-08-06T09:39:10;0.10;;;0.10;;
13347;SDS011;6743;49.934;9.138;2023-08-06T09:44:31;0.35;;;0.35;;
13347;SDS011;6743;49.934;9.138;2023-08-06T09:46:58;0.45;;;0.40;;
13347;SDS011;6743;49.934;9.138;2023-08-06T09:49:26;1.20;;;0.70;;
13347;SDS011;6743;49.934;9.138;2023-08-06T09:51:52;0.20;;;0.20;;
13347;SDS011;6743;49.934;9.138;2023-08-06T09:54:20;0.35;;;0.35;;
13347;SDS011;6743;49.934;9.138;2023-08-06T09:56:48;0.32;;;0.32;;
13347;SDS011;6743;49.934;9.138;2023-08-06T09:59:14;0.30;;;0.30;;
13347;SDS011;6743;49.934;9.138;2023-08-06T13:56:32;0.10;;;0.10;;
13347;SDS011;6743;49.934;9.138;2023-08-06T13:59:00;0.45;;;0.45;;
13347;SDS011;6743;49.934;9.138;2023-08-06T14:01:26;0.80;;;0.50;;
13347;SDS011;6743;49.934;9.138;2023-08-06T14:03:52;0.30;;;0.30;;
13347;SDS011;6743;49.934;9.138;2023-08-06T14:06:18;0.40;;;0.30;;
13347;SDS011;6743;49.934;9.138;2023-08-06T14:08:44;0.55;;;0.55;;
13347;SDS011;6743;49.934;9.138;2023-08-06T14:11:10;0.40;;;0.40;;
13347;SDS011;6743;49.934;9.138;2023-08-06T14:13:37;0.35;;;0.35;;
13347;SDS011;6743;49.934;9.138;2023-08-06T14:16:03;0.25;;;0.25;;
13347;SDS011;6743;49.934;9.138;2023-08-06T14:18:29;0.30;;;0.30;;
13347;SDS011;6743;49.934;9.138;2023-08-06T14:20:55;0.30;;;0.30;;
13347;SDS011;6743;49.934;9.138;2023-08-06T14:23:21;0.20;;;0.20;;
13347;SDS011;6743;49.934;9.138;2023-08-06T14:25:47;0.22;;;0.22;;
13347;SDS011;6743;49.934;9.138;2023-08-06T14:28:13;0.37;;;0.37;;
13347;SDS011;6743;49.934;9.138;2023-08-06T14:30:40;0.43;;;0.30;;
13347;SDS011;6743;49.934;9.138;2023-08-06T14:33:08;0.40;;;0.40;;
13347;SDS011;6743;49.934;9.138;2023-08-06T14:35:34;0.40;;;0.40;;
13347;SDS011;6743;49.934;9.138;2023-08-06T14:38:00;0.43;;;0.43;;
13347;SDS011;6743;49.934;9.138;2023-08-06T14:40:26;0.30;;;0.30;;
13347;SDS011;6743;49.934;9.138;2023-08-06T14:42:58;0.43;;;0.43;;
13347;SDS011;6743;49.934;9.138;2023-08-06T14:45:24;0.32;;;0.32;;
13347;SDS011;6743;49.934;9.138;2023-08-06T14:47:51;0.62;;;0.62;;
13347;SDS011;6743;49.934;9.138;2023-08-06T14:50:17;0.35;;;0.35;;
13347;SDS011;6743;49.934;9.138;2023-08-06T14:52:43;0.30;;;0.30;;
13347;SDS011;6743;49.934;9.138;2023-08-06T14:55:09;0.28;;;0.28;;
13347;SDS011;6743;49.934;9.138;2023-08-06T14:57:35;0.35;;;0.35;;
13347;SDS011;6743;49.934;9.138;2023-08-06T15:00:01;0.20;;;0.20;;
13347;SDS011;6743;49.934;9.138;2023-08-06T15:02:27;0.37;;;0.37;;
13347;SDS011;6743;49.934;9.138;2023-08-06T15:04:53;0.40;;;0.40;;
13347;SDS011;6743;49.934;9.138;2023-08-06T15:07:19;0.20;;;0.20;;
13347;SDS011;6743;49.934;9.138;2023-08-06T15:09:45;0.47;;;0.40;;
13347;SDS011;6743;49.934;9.138;2023-08-06T15:12:11;0.35;;;0.30;;
13347;SDS011;6743;49.934;9.138;2023-08-06T15:14:37;0.30;;;0.30;;
13347;SDS011;6743;49.934;9.138;2023-08-06T15:17:03;0.17;;;0.17;;
13347;SDS011;6743;49.934;9.138;2023-08-06T15:19:29;0.20;;;0.20;;
13347;SDS011;6743;49.934;9.138;2023-08-06T15:21:56;0.30;;;0.30;;
13347;SDS011;6743;49.934;9.138;2023-08-06T15:24:22;1.55;;;0.30;;
13347;SDS011;6743;49.934;9.138;2023-08-06T15:26:48;0.17;;;0.17;;
13347;SDS011;6743;49.934;9.138;2023-08-06T15:29:14;0.57;;;0.40;;
13347;SDS011;6743;49.934;9.138;2023-08-06T15:31:40;0.50;;;0.50;;
13347;SDS011;6743;49.934;9.138;2023-08-06T15:34:06;0.30;;;0.30;;
13347;SDS011;6743;49.934;9.138;2023-08-06T15:36:32;0.40;;;0.40;;
13347;SDS011;6743;49.934;9.138;2023-08-06T15:39:00;0.20;;;0.20;;
13347;SDS011;6743;49.934;9.138;2023-08-06T15:41:26;0.50;;;0.50;;
13347;SDS011;6743;49.934;9.138;2023-08-06T15:43:52;0.30;;;0.30;;
13347;SDS011;6743;49.934;9.138;2023-08-06T15:46:18;0.20;;;0.20;;
13347;SDS011;6743;49.934;9.138;2023-08-06T15:48:44;0.52;;;0.52;;
13347;SDS011;6743;49.934;9.138;2023-08-06T15:51:10;0.30;;;0.30;;
13347;SDS011;6743;49.934;9.138;2023-08-06T15:53:37;0.62;;;0.62;;
13347;SDS011;6743;49.934;9.138;2023-08-06T15:56:03;0.30;;;0.30;;
13347;SDS011;6743;49.934;9.138;2023-08-06T15:58:30;0.20;;;0.20;;
13347;SDS011;6743;49.934;9.138;2023-08-06T16:00:57;0.40;;;0.28;;
13347;SDS011;6743;49.934;9.138;2023-08-06T16:03:23;0.20;;;0.20;;
13347;SDS011;6743;49.934;9.138;2023-08-06T16:05:49;0.55;;;0.30;;
13347;SDS011;6743;49.934;9.138;2023-08-06T16:08:15;0.62;;;0.47;;
13347;SDS011;6743;49.934;9.138;2023-08-06T16:10:41;0.20;;;0.20;;
13347;SDS011;6743;49.934;9.138;2023-08-06T16:13:10;0.17;;;0.17;;
13347;SDS011;6743;49.934;9.138;2023-08-06T16:15:36;0.40;;;0.40;;
13347;SDS011;6743;49.934;9.138;2023-08-06T16:18:02;0.20;;;0.20;;
13347;SDS011;6743;49.934;9.138;2023-08-06T16:20:28;0.20;;;0.20;;
13347;SDS011;6743;49.934;9.138;2023-08-06T16:22:55;0.43;;;0.43;;
13347;SDS011;6743;49.934;9.138;2023-08-06T16:25:21;0.57;;;0.35;;
13347;SDS011;6743;49.934;9.138;2023-08-06T16:27:47;0.28;;;0.28;;
13347;SDS011;6743;49.934;9.138;2023-08-06T16:30:14;0.20;;;0.20;;
13347;SDS011;6743;49.934;9.138;2023-08-06T16:32:41;0.25;;;0.20;;
13347;SDS011;6743;49.934;9.138;2023-08-06T16:35:08;0.10;;;0.10;;
13347;SDS011;6743;49.934;9.138;2023-08-06T16:37:35;0.30;;;0.30;;
13347;SDS011;6743;49.934;9.138;2023-08-06T16:40:01;0.20;;;0.20;;
13347;SDS011;6743;49.934;9.138;2023-08-06T16:42:28;0.10;;;0.10;;
13347;SDS011;6743;49.934;9.138;2023-08-06T16:44:54;0.20;;;0.20;;
13347;SDS011;6743;49.934;9.138;2023-08-06T16:47:21;0.10;;;0.10;;
13347;SDS011;6743;49.934;9.138;2023-08-06T16:49:47;0.30;;;0.30;;
13347;SDS011;6743;49.934;9.138;2023-08-06T16:52:13;0.30;;;0.30;;
13347;SDS011;6743;49.934;9.138;2023-08-06T16:54:39;0.20;;;0.20;;
13347;SDS011;6743;49.934;9.138;2023-08-06T16:57:06;0.30;;;0.30;;
13347;SDS011;6743;49.934;9.138;2023-08-06T16:59:31;0.20;;;0.20;;
13347;SDS011;6743;49.934;9.138;2023-08-06T17:01:57;0.10;;;0.10;;
13347;SDS011;6743;49.934;9.138;2023-08-06T17:04:24;0.25;;;0.25;;
13347;SDS011;6743;49.934;9.138;2023-08-06T17:06:50;0.10;;;0.10;;
13347;SDS011;6743;49.934;9.138;2023-08-06T17:09:16;0.20;;;0.20;;
13347;SDS011;6743;49.934;9.138;2023-08-06T17:11:42;0.30;;;0.30;;
13347;SDS011;6743;49.934;9.138;2023-08-06T17:14:08;0.30;;;0.30;;
13347;SDS011;6743;49.934;9.138;2023-08-06T17:16:35;0.45;;;0.40;;
13347;SDS011;6743;49.934;9.138;2023-08-06T17:19:01;0.40;;;0.40;;
13347;SDS011;6743;49.934;9.138;2023-08-06T17:21:28;0.20;;;0.20;;
13347;SDS011;6743;49.934;9.138;2023-08-06T17:23:54;0.20;;;0.20;;
13347;SDS011;6743;49.934;9.138;2023-08-06T17:26:20;0.40;;;0.40;;
13347;SDS011;6743;49.934;9.138;2023-08-06T17:28:46;0.47;;;0.47;;
13347;SDS011;6743;49.934;9.138;2023-08-06T17:31:13;0.50;;;0.50;;
13347;SDS011;6743;49.934;9.138;2023-08-06T17:33:39;0.28;;;0.28;;
13347;SDS011;6743;49.934;9.138;2023-08-06T17:36:05;0.32;;;0.32;;
13347;SDS011;6743;49.934;9.138;2023-08-06T17:38:31;0.20;;;0.20;;
13347;SDS011;6743;49.934;9.138;2023-08-06T17:40:57;0.20;;;0.20;;
13347;SDS011;6743;49.934;9.138;2023-08-06T17:43:25;0.20;;;0.20;;
13347;SDS011;6743;49.934;9.138;2023-08-06T17:45:51;0.40;;;0.20;;
13347;SDS011;6743;49.934;9.138;2023-08-06T17:48:17;0.20;;;0.20;;
13347;SDS011;6743;49.934;9.138;2023-08-06T17:50:43;0.22;;;0.22;;
13347;SDS011;6743;49.934;9.138;2023-08-06T17:53:10;0.20;;;0.20;;
13347;SDS011;6743;49.934;9.138;2023-08-06T17:55:37;0.50;;;0.25;;
13347;SDS011;6743;49.934;9.138;2023-08-06T17:58:03;0.20;;;0.20;;
13347;SDS011;6743;49.934;9.138;2023-08-06T18:00:30;0.20;;;0.20;;
13347;SDS011;6743;49.934;9.138;2023-08-06T18:02:56;0.20;;;0.20;;
13347;SDS011;6743;49.934;9.138;2023-08-06T18:05:22;2.33;;;0.30;;
13347;SDS011;6743;49.934;9.138;2023-08-06T18:07:49;0.60;;;0.40;;
13347;SDS011;6743;49.934;9.138;2023-08-06T18:10:15;0.30;;;0.30;;
13347;SDS011;6743;49.934;9.138;2023-08-06T18:12:42;0.20;;;0.20;;
13347;SDS011;6743;49.934;9.138;2023-08-06T18:15:08;0.20;;;0.20;;
13347;SDS011;6743;49.934;9.138;2023-08-06T18:17:36;0.35;;;0.35;;
13347;SDS011;6743;49.934;9.138;2023-08-06T18:20:02;0.20;;;0.20;;
13347;SDS011;6743;49.934;9.138;2023-08-06T18:22:29;0.15;;;0.15;;
13347;SDS011;6743;49.934;9.138;2023-08-06T18:24:55;0.28;;;0.28;;
13347;SDS011;6743;49.934;9.138;2023-08-06T18:27:22;0.73;;;0.50;;
13347;SDS011;6743;49.934;9.138;2023-08-06T18:29:49;0.20;;;0.20;;
13347;SDS011;6743;49.934;9.138;2023-08-06T18:32:15;0.40;;;0.40;;
13347;SDS011;6743;49.934;9.138;2023-08-06T18:34:41;0.40;;;0.40;;
13347;SDS011;6743;49.934;9.138;2023-08-06T18:37:07;0.20;;;0.20;;
13347;SDS011;6743;49.934;9.138;2023-08-06T18:39:33;0.20;;;0.20;;
13347;SDS011;6743;49.934;9.138;2023-08-06T18:41:59;0.47;;;0.47;;
13347;SDS011;6743;49.934;9.138;2023-08-06T18:44:25;0.65;;;0.60;;
13347;SDS011;6743;49.934;9.138;2023-08-06T18:46:52;0.28;;;0.28;;
13347;SDS011;6743;49.934;9.138;2023-08-06T18:49:18;0.10;;;0.10;;
13347;SDS011;6743;49.934;9.138;2023-08-06T18:51:44;0.43;;;0.28;;
13347;SDS011;6743;49.934;9.138;2023-08-06T18:54:10;0.20;;;0.20;;
13347;SDS011;6743;49.934;9.138;2023-08-06T18:56:36;0.20;;;0.20;;
13347;SDS011;6743;49.934;9.138;2023-08-06T18:59:02;0.28;;;0.28;;
13347;SDS011;6743;49.934;9.138;2023-08-06T19:01:28;0.50;;;0.50;;
13347;SDS011;6743;49.934;9.138;2023-08-06T19:03:54;0.30;;;0.30;;
13347;SDS011;6743;49.934;9.138;2023-08-06T19:06:20;0.70;;;0.70;;
13347;SDS011;6743;49.934;9.138;2023-08-06T19:08:48;0.30;;;0.30;;
13347;SDS011;6743;49.934;9.138;2023-08-06T19:11:16;0.22;;;0.22;;
13347;SDS011;6743;49.934;9.138;2023-08-06T19:13:42;0.22;;;0.22;;
13347;SDS011;6743;49.934;9.138;2023-08-06T19:16:08;0.30;;;0.30;;
13347;SDS011;6743;49.934;9.138;2023-08-06T19:18:34;0.13;;;0.13;;
13347;SDS011;6743;49.934;9.138;2023-08-06T19:21:01;0.15;;;0.15;;
13347;SDS011;6743;49.934;9.138;2023-08-06T19:23:27;0.20;;;0.20;;
13347;SDS011;6743;49.934;9.138;2023-08-06T19:25:53;0.25;;;0.25;;
13347;SDS011;6743;49.934;9.138;2023-08-06T19:28:19;0.17;;;0.17;;
13347;SDS011;6743;49.934;9.138;2023-08-06T19:30:46;0.20;;;0.20;;
13347;SDS011;6743;49.934;9.138;2023-08-06T19:33:13;0.20;;;0.20;;
13347;SDS011;6743;49.934;9.138;2023-08-06T19:35:44;0.20;;;0.20;;
13347;SDS011;6743;49.934;9.138;2023-08-06T19:38:12;0.17;;;0.17;;
13347;SDS011;6743;49.934;9.138;2023-08-06T19:40:38;0.10;;;0.10;;
13347;SDS011;6743;49.934;9.138;2023-08-06T19:43:04;0.17;;;0.17;;
13347;SDS011;6743;49.934;9.138;2023-08-06T19:45:30;0.10;;;0.10;;
13347;SDS011;6743;49.934;9.138;2023-08-06T19:47:56;0.20;;;0.20;;
13347;SDS011;6743;49.934;9.138;2023-08-06T19:50:22;0.20;;;0.20;;
13347;SDS011;6743;49.934;9.138;2023-08-06T19:52:48;0.10;;;0.10;;
13347;SDS011;6743;49.934;9.138;2023-08-06T19:55:17;0.35;;;0.35;;
13347;SDS011;6743;49.934;9.138;2023-08-06T19:57:43;0.22;;;0.22;;
13347;SDS011;6743;49.934;9.138;2023-08-06T20:00:10;0.20;;;0.20;;
13347;SDS011;6743;49.934;9.138;2023-08-06T20:02:36;0.10;;;0.10;;
13347;SDS011;6743;49.934;9.138;2023-08-06T20:05:02;0.30;;;0.30;;
13347;SDS011;6743;49.934;9.138;2023-08-06T20:07:29;0.20;;;0.20;;
13347;SDS011;6743;49.934;9.138;2023-08-06T20:09:55;0.20;;;0.20;;
13347;SDS011;6743;49.934;9.138;2023-08-06T20:12:22;0.25;;;0.25;;